Data for 02/18/2013

Time Sea-Level Adjusted Pressure Absolute Pressure Temperature Relative Humidity Dew Point   
(mb) (inHg) (mb) (inHg) (C) (F) (%) (C) (F)
00:05 1016 30 845 24.95 -3.7 25.4 91 -4.9 23.2
00:10 1016 30 845 24.95 -3.7 25.3 90 -5 22.9
00:15 1016 30 845 24.95 -3.7 25.3 91 -5 22.9
00:20 1016 30 845 24.95 -3.8 25.2 91 -5.1 22.9
00:25 1016 30 845 24.95 -3.8 25.1 90 -5.2 22.6
00:30 1016 30 845 24.95 -3.8 25.1 89 -5.4 22.2
00:35 1016 30 845 24.95 -3.9 25 87 -5.7 21.7
00:40 1016 30 845 24.95 -3.9 25.1 86 -5.9 21.4
00:45 1016 30 845 24.95 -3.8 25.2 84 -6 21.1
00:50 1016 30 845 24.95 -3.7 25.3 83 -6.2 20.8
00:55 1016 30 845 24.95 -3.7 25.3 82 -6.3 20.7
01:00 1016 30 845 24.95 -3.7 25.3 81 -6.5 20.3
01:05 1016 30 845 24.95 -3.7 25.4 81 -6.5 20.3
01:10 1016 30 845 24.95 -3.7 25.4 81 -6.4 20.5
01:15 1016 30 845 24.95 -3.8 25.3 82 -6.4 20.5
01:20 1016 30 845 24.95 -3.9 25 83 -6.3 20.6
01:25 1016 30 845 24.95 -4 24.8 83 -6.4 20.5
01:30 1016 30 845 24.95 -4 24.8 84 -6.4 20.5
01:35 1016 30 845 24.95 -4 24.7 84 -6.4 20.5
01:40 1016 30 846 24.98 -4 24.8 83 -6.4 20.4
01:45 1016 30 846 24.98 -4 24.8 83 -6.5 20.3
01:50 1016 30 846 24.98 -4 24.8 83 -6.5 20.3
01:55 1016 30 846 24.98 -4.1 24.7 83 -6.5 20.3
02:00 1016 30 846 24.98 -4.1 24.6 82 -6.7 20
02:05 1016 30 846 24.98 -4.1 24.6 81 -6.8 19.7
02:10 1016 30 846 24.98 -4 24.8 80 -6.9 19.6
02:15 1017 30.03 846 24.98 -4.1 24.6 79 -7.2 19
02:20 1017 30.03 846 24.98 -4.1 24.6 76 -7.7 18.2
02:25 1017 30.03 846 24.98 -4 24.8 76 -7.6 18.3
02:30 1017 30.03 846 24.98 -4.1 24.6 76 -7.8 17.9
02:35 1017 30.03 846 24.98 -4.2 24.5 75 -8 17.6
02:40 1017 30.03 846 24.98 -4.3 24.3 74 -8.2 17.2
02:45 1017 30.03 846 24.98 -4.2 24.4 72 -8.6 16.6
02:50 1017 30.03 846 24.98 -4 24.8 70 -8.6 16.4
02:55 1017 30.03 846 24.98 -3.8 25.1 68 -9 15.9
03:00 1017 30.03 846 24.98 -3.7 25.4 66 -9.2 15.4
03:05 1017 30.03 846 24.98 -3.6 25.4 65 -9.3 15.3
03:10 1017 30.03 846 24.98 -3.7 25.4 65 -9.4 15.1
03:15 1017 30.03 846 24.98 -3.7 25.4 63 -9.7 14.5
03:20 1017 30.03 846 24.98 -3.6 25.6 62 -9.8 14.4
03:25 1017 30.03 846 24.98 -3.5 25.7 61 -10 14.1
03:30 1017 30.03 846 24.98 -3.4 25.9 59 -10.4 13.2
03:35 1017 30.03 846 24.98 -3.3 26.1 59 -10.1 13.8
03:40 1017 30.03 846 24.98 -3.2 26.2 59 -10.2 13.6
03:45 1017 30.03 846 24.98 -3.2 26.2 59 -10.2 13.6
03:50 1017 30.03 846 24.98 -3.2 26.2 60 -10 13.9
03:55 1017 30.03 846 24.98 -3.3 26.1 60 -10 14
04:00 1017 30.03 846 24.98 -3.2 26.2 58 -10.3 13.5
04:05 1017 30.03 846 24.98 -3.2 26.3 60 -9.9 14.2
04:10 1017 30.03 846 24.98 -3.2 26.2 60 -9.8 14.3
04:15 1017 30.03 846 24.98 -3.3 26 61 -9.7 14.5
04:20 1017 30.03 846 24.98 -3.4 25.9 62 -9.6 14.7
04:25 1017 30.03 846 24.98 -3.5 25.8 65 -9.1 15.6
04:30 1017 30.03 846 24.98 -3.6 25.6 66 -9.1 15.7
04:35 1017 30.03 846 24.98 -3.7 25.4 67 -9 15.8
04:40 1017 30.03 846 24.98 -3.8 25.2 66 -9.2 15.4
04:45 1017 30.03 846 24.98 -3.8 25.2 66 -9.3 15.2
04:50 1017 30.03 846 24.98 -3.8 25.1 65 -9.5 14.9
04:55 1017 30.03 846 24.98 -4 24.9 65 -9.6 14.8
05:00 1017 30.03 846 24.98 -4.1 24.7 67 -9.4 15.1
05:05 1017 30.03 846 24.98 -4 24.7 68 -9.2 15.5
05:10 1017 30.03 846 24.98 -4 24.9 67 -9.1 15.5
05:15 1017 30.03 846 24.98 -3.9 24.9 67 -9.2 15.4
05:20 1017 30.03 846 24.98 -3.8 25.1 67 -9 15.7
05:25 1017 30.03 846 24.98 -3.9 25 67 -9.2 15.5
05:30 1017 30.03 846 24.98 -3.9 25 67 -9.2 15.4
05:35 1017 30.03 846 24.98 -3.9 25 66 -9.4 15.2
05:40 1017 30.03 846 24.98 -4 24.8 67 -9.3 15.2
05:45 1017 30.03 846 24.98 -4.1 24.7 67 -9.4 15.1
05:50 1017 30.03 847 25.01 -4 24.8 67 -9.3 15.3
05:55 1017 30.03 847 25.01 -4.2 24.4 68 -9.2 15.5
06:00 1017 30.03 847 25.01 -4.4 24.1 68 -9.4 15.1
06:05 1017 30.03 847 25.01 -4.4 24.1 68 -9.5 14.9
06:10 1017 30.03 847 25.01 -4.3 24.2 67 -9.7 14.6
06:15 1017 30.03 847 25.01 -4.4 24.1 67 -9.6 14.7
06:20 1018 30.06 847 25.01 -4.5 23.9 67 -9.8 14.4
06:25 1017 30.03 847 25.01 -4.5 24 68 -9.6 14.8
06:30 1017 30.03 847 25.01 -4.5 24 67 -9.7 14.6
06:35 1017 30.03 847 25.01 -4.5 23.9 67 -9.7 14.5
06:40 1018 30.06 847 25.01 -4.5 23.9 68 -9.6 14.8
06:45 1017 30.03 847 25.01 -4.5 23.9 68 -9.5 14.8
06:50 1018 30.06 847 25.01 -4.6 23.7 69 -9.5 15
06:55 1018 30.06 847 25.01 -4.7 23.6 70 -9.3 15.3
07:00 1018 30.06 847 25.01 -4.7 23.6 72 -8.9 15.9
07:05 1018 30.06 847 25.01 -4.7 23.5 74 -8.7 16.4
07:10 1018 30.06 847 25.01 -4.8 23.4 75 -8.6 16.6
07:15 1018 30.06 847 25.01 -4.8 23.4 75 -8.6 16.6
07:20 1018 30.06 847 25.01 -4.8 23.4 75 -8.6 16.5
07:25 1018 30.06 847 25.01 -4.7 23.5 74 -8.7 16.4
07:30 1018 30.06 847 25.01 -4.7 23.5 74 -8.7 16.4
07:35 1018 30.06 847 25.01 -4.7 23.5 74 -8.6 16.5
07:40 1018 30.06 847 25.01 -4.8 23.4 75 -8.6 16.6
07:45 1018 30.06 847 25.01 -4.8 23.4 75 -8.6 16.6
07:50 1017 30.03 847 25.01 -4.8 23.4 75 -8.7 16.4
07:55 1017 30.03 847 25.01 -4.8 23.3 74 -8.7 16.3
08:00 1017 30.03 847 25.01 -4.8 23.3 74 -8.7 16.3
08:05 1018 30.06 847 25.01 -4.9 23.1 75 -8.7 16.4
08:10 1018 30.06 847 25.01 -5 23 76 -8.5 16.6
08:15 1018 30.06 847 25.01 -5 23 76 -8.6 16.6
08:20 1018 30.06 847 25.01 -5.1 22.8 77 -8.5 16.7
08:25 1018 30.06 847 25.01 -5 23 75 -8.8 16.2
08:30 1018 30.06 847 25.01 -4.9 23.1 73 -9.2 15.5
08:35 1018 30.06 847 25.01 -5.1 22.8 73 -9.2 15.4
08:40 1018 30.06 847 25.01 -5.2 22.6 72 -9.5 14.9
08:45 1018 30.06 847 25.01 -5.5 22.1 72 -9.9 14.3
08:50 1018 30.06 847 25.01 -5.6 22 72 -9.9 14.2
08:55 1018 30.06 847 25.01 -5.5 22 71 -10 14.1
09:00 1018 30.06 847 25.01 -5.4 22.2 71 -10 14
09:05 1018 30.06 847 25.01 -5.4 22.2 70 -10.1 13.8
09:10 1018 30.06 847 25.01 -5.4 22.2 71 -9.9 14.2
09:15 1018 30.06 847 25.01 -5.6 22 72 -9.9 14.2
09:20 1018 30.06 847 25.01 -5.5 22 72 -9.8 14.3
09:25 1018 30.06 847 25.01 -5.4 22.3 71 -9.8 14.4
09:30 1018 30.06 847 25.01 -5.2 22.6 71 -9.7 14.5
09:35 1018 30.06 847 25.01 -5.4 22.4 72 -9.7 14.6
09:40 1018 30.06 847 25.01 -5.2 22.6 71 -9.7 14.5
09:45 1018 30.06 847 25.01 -4.9 23.1 71 -9.5 14.9
09:50 1018 30.06 847 25.01 -4.7 23.5 69 -9.5 14.9
09:55 1018 30.06 847 25.01 -4.4 24 67 -9.6 14.7
10:00 1018 30.06 847 25.01 -4.1 24.7 65 -9.7 14.5
10:05 1018 30.06 847 25.01 -4.2 24.4 66 -9.6 14.8
10:10 1018 30.06 847 25.01 -3.3 26 62 -9.5 14.9
10:15 1018 30.06 847 25.01 -2.5 27.4 60 -9.3 15.3
10:20 1018 30.06 847 25.01 -2.3 27.9 57 -9.6 14.8
10:25 1018 30.06 847 25.01 -2 28.3 56 -9.8 14.4
10:30 1018 30.06 847 25.01 -1.7 29 56 -9.3 15.3
10:35 1018 30.06 847 25.01 -1.8 28.7 57 -9.2 15.4
10:40 1018 30.06 847 25.01 -1.8 28.8 57 -9.2 15.5
10:45 1018 30.06 847 25.01 -1.8 28.8 57 -9.1 15.6
10:50 1018 30.06 847 25.01 -1.8 28.8 57 -9.3 15.2
10:55 1018 30.06 847 25.01 -2.3 27.9 59 -9.1 15.6
11:00 1018 30.06 847 25.01 -2.2 28 60 -9 15.7
11:05 1018 30.06 847 25.01 -2 28.4 59 -9.1 15.7
11:10 1018 30.06 847 25.01 -2 28.5 59 -8.9 16
11:15 1018 30.06 847 25.01 -1.4 29.5 57 -8.7 16.3
11:20 1018 30.06 847 25.01 -0.7 30.7 55 -8.7 16.3
11:25 1018 30.06 847 25.01 -0.6 31 55 -8.4 16.8
11:30 1018 30.06 847 25.01 -0.8 30.7 56 -8.4 16.9
11:35 1018 30.06 847 25.01 -0.6 30.9 56 -8.3 17
11:40 1018 30.06 847 25.01 -0.3 31.5 53 -8.6 16.5
11:45 1018 30.06 847 25.01 0.2 32.4 53 -8.2 17.2
11:50 1018 30.06 847 25.01 0 32.1 55 -7.9 17.7
11:55 1018 30.06 847 25.01 -0.1 31.8 54 -8.4 16.8
12:00 1018 30.06 847 25.01 -0.5 31.1 54 -8.6 16.5
12:05 1018 30.06 847 25.01 -0.7 30.7 54 -9 15.8
12:10 1018 30.06 847 25.01 -0.9 30.4 54 -9.2 15.5
12:15 1018 30.06 847 25.01 -1.2 29.9 56 -9 15.8
12:20 1018 30.06 847 25.01 -0.9 30.4 53 -9.2 15.4
12:25 1018 30.06 847 25.01 -1 30.2 53 -9.5 15
12:30 1018 30.06 847 25.01 -0.6 31 51 -9.5 14.9
12:35 1018 30.06 847 25.01 -0.5 31.1 51 -9.5 15
12:40 1018 30.06 847 25.01 -0.8 30.6 51 -9.8 14.4
12:45 1018 30.06 847 25.01 -0.3 31.5 47 -10.3 13.4
12:50 1018 30.06 847 25.01 0.1 32.2 42 -11.4 11.5
12:55 1018 30.06 847 25.01 0.1 32.2 45 -10.5 13.2
13:00 1018 30.06 847 25.01 0.4 32.7 43 -10.7 12.8
13:05 1018 30.06 847 25.01 0.6 33 42 -10.9 12.4
13:10 1018 30.06 847 25.01 0.7 33.3 44 -10.3 13.4
13:15 1017 30.03 847 25.01 1.2 34.1 40 -11 12.1
13:20 1017 30.03 847 25.01 1.2 34.2 38 -11.7 11
13:25 1017 30.03 847 25.01 1.7 35 43 -9.8 14.4
13:30 1017 30.03 846 24.98 1.2 34.2 47 -8.8 16.1
13:35 1017 30.03 846 24.98 0.7 33.2 46 -9.6 14.7
13:40 1017 30.03 846 24.98 1 33.8 38 -11.7 10.9
13:45 1017 30.03 846 24.98 0.7 33.2 39 -11.8 10.8
13:50 1017 30.03 846 24.98 0.5 33 38 -12.2 10
13:55 1017 30.03 846 24.98 1.2 34.1 36 -12.2 10
14:00 1017 30.03 846 24.98 1.1 34 37 -12.1 10.2
14:05 1017 30.03 846 24.98 1 33.8 38 -11.8 10.8
14:10 1017 30.03 846 24.98 1.7 35.1 38 -11.2 11.8
14:15 1017 30.03 846 24.98 2.6 36.6 38 -10.5 13
14:20 1017 30.03 846 24.98 2.2 36 38 -10.7 12.8
14:25 1017 30.03 846 24.98 2.6 36.7 34 -11.6 11
14:30 1017 30.03 846 24.98 2.6 36.7 33 -12 10.4
14:35 1016 30 846 24.98 2.5 36.5 32 -12.6 9.4
14:40 1016 30 846 24.98 2.3 36.1 35 -11.8 10.8
14:45 1016 30 846 24.98 2.5 36.5 35 -11.6 11.2
14:50 1016 30 846 24.98 1.3 34.4 36 -12.2 10
14:55 1016 30 845 24.95 1 33.8 37 -12.1 10.3
15:00 1016 30 845 24.95 1.7 35.1 36 -11.7 11
15:05 1016 30 845 24.95 1.5 34.7 33 -13 8.6
15:10 1016 30 845 24.95 1.1 33.9 35 -12.6 9.2
15:15 1016 30 845 24.95 1 33.8 35 -12.8 9
15:20 1016 30 845 24.95 1.5 34.7 32 -13.7 7.4
15:25 1016 30 845 24.95 2.6 36.8 30 -13.4 7.9
15:30 1016 30 845 24.95 2.2 36 30 -13.8 7.2
15:35 1016 30 845 24.95 1.1 33.9 31 -14.5 5.9
15:40 1016 30 845 24.95 0.5 33 33 -14.1 6.5
15:45 1016 30 845 24.95 0.7 33.3 30 -15.1 4.8
15:50 1016 30 845 24.95 0.8 33.4 31 -14.7 5.5
15:55 1016 30 845 24.95 1.5 34.6 29 -14.8 5.4
16:00 1016 30 845 24.95 1.1 33.9 28 -15.4 4.3
16:05 1015 29.97 845 24.95 1.1 34 31 -14 6.7
16:10 1015 29.97 845 24.95 1.8 35.3 29 -14.3 6.3
16:15 1015 29.97 845 24.95 2 35.6 29 -14.4 6.1
16:20 1015 29.97 845 24.95 1.6 34.9 30 -14.1 6.7
16:25 1015 29.97 845 24.95 1.5 34.7 32 -13.5 7.7
16:30 1015 29.97 844 24.92 1.5 34.8 31 -13.7 7.3
16:35 1015 29.97 844 24.92 0.8 33.4 33 -13.8 7.2
16:40 1015 29.97 844 24.92 1.5 34.8 30 -14.3 6.2
16:45 1015 29.97 844 24.92 1.9 35.5 31 -13.6 7.6
16:50 1015 29.97 844 24.92 2.3 36.2 30 -13.5 7.6
16:55 1015 29.97 844 24.92 1.5 34.8 33 -13.2 8.2
17:00 1015 29.97 844 24.92 1.1 34 33 -13.6 7.5
17:05 1015 29.97 844 24.92 1.3 34.3 33 -13.4 7.9
17:10 1015 29.97 844 24.92 1.4 34.5 33 -13.3 8
17:15 1015 29.97 844 24.92 1.2 34.1 34 -13.1 8.4
17:20 1015 29.97 844 24.92 0.9 33.5 35 -13 8.7
17:25 1015 29.97 844 24.92 0.8 33.5 36 -12.6 9.3
17:30 1015 29.97 844 24.92 1 33.8 35 -12.7 9.1
17:35 1015 29.97 844 24.92 0.5 32.9 36 -12.8 9
17:40 1014 29.94 844 24.92 0.8 33.5 36 -12.8 9
17:45 1014 29.94 844 24.92 0.8 33.5 36 -12.7 9.1
17:50 1014 29.94 844 24.92 0.8 33.5 35 -12.8 8.9
17:55 1014 29.94 844 24.92 1.2 34.1 35 -12.8 9
18:00 1014 29.94 844 24.92 0.9 33.6 36 -12.7 9.1
18:05 1014 29.94 844 24.92 0.7 33.2 37 -12.6 9.4
18:10 1014 29.94 844 24.92 0.8 33.5 36 -12.5 9.5
18:15 1014 29.94 844 24.92 0.7 33.3 37 -12.5 9.5
18:20 1014 29.94 844 24.92 0.4 32.7 38 -12.4 9.7
18:25 1014 29.94 844 24.92 0.1 32.1 37 -12.9 8.9
18:30 1014 29.94 844 24.92 -0.1 31.8 38 -12.8 9
18:35 1014 29.94 844 24.92 -0.3 31.4 38 -13 8.6
18:40 1014 29.94 843 24.89 -0.6 31 40 -12.5 9.4
18:45 1014 29.94 843 24.89 -0.7 30.7 41 -12.3 9.8
18:50 1014 29.94 843 24.89 -0.8 30.5 44 -11.7 11
18:55 1014 29.94 843 24.89 -1 30.1 45 -11.7 11
19:00 1014 29.94 843 24.89 -1.6 29.1 46 -11.8 10.8
19:05 1014 29.94 843 24.89 -1.9 28.6 46 -12.1 10.3
19:10 1014 29.94 843 24.89 -2.1 28.2 47 -12 10.4
19:15 1014 29.94 843 24.89 -2.2 28.1 47 -12 10.4
19:20 1014 29.94 843 24.89 -2.3 27.9 48 -11.8 10.7
19:25 1014 29.94 843 24.89 -2.3 27.9 48 -11.9 10.6
19:30 1014 29.94 843 24.89 -2.3 27.9 51 -11.1 12.1
19:35 1014 29.94 843 24.89 -2.6 27.3 54 -10.6 12.9
19:40 1014 29.94 843 24.89 -2.8 27 55 -10.5 13.1
19:45 1014 29.94 843 24.89 -2.9 26.8 55 -10.6 12.8
19:50 1013 29.91 843 24.89 -2.9 26.8 55 -10.7 12.8
19:55 1014 29.94 843 24.89 -2.9 26.8 55 -10.8 12.6
20:00 1014 29.94 843 24.89 -2.9 26.8 55 -10.8 12.5
20:05 1014 29.94 843 24.89 -3.1 26.3 57 -10.5 13.2
20:10 1014 29.94 843 24.89 -3.4 26 57 -10.8 12.5
20:15 1014 29.94 843 24.89 -3.3 26.1 55 -11 12.1
20:20 1014 29.94 843 24.89 -3.2 26.3 55 -11 12.2
20:25 1014 29.94 843 24.89 -3.5 25.7 58 -10.7 12.8
20:30 1014 29.94 843 24.89 -3.8 25.1 57 -11 12.1
20:35 1014 29.94 843 24.89 -3.9 25 58 -11.1 12.1
20:40 1014 29.94 843 24.89 -3.9 25 58 -10.9 12.3
20:45 1014 29.94 843 24.89 -3.7 25.3 57 -11 12.1
20:50 1014 29.94 843 24.89 -3.7 25.4 57 -11 12.2
20:55 1013 29.91 843 24.89 -3.6 25.6 57 -10.9 12.5
21:00 1013 29.91 843 24.89 -3.4 25.9 57 -10.7 12.7
21:05 1013 29.91 843 24.89 -3.4 25.8 57 -10.8 12.6
21:10 1013 29.91 843 24.89 -3.4 25.9 57 -10.7 12.7
21:15 1013 29.91 843 24.89 -3.4 25.8 57 -10.8 12.6
21:20 1013 29.91 842 24.86 -3.6 25.6 58 -10.8 12.6
21:25 1013 29.91 842 24.86 -3.8 25.1 60 -10.5 13
21:30 1013 29.91 842 24.86 -4.1 24.7 60 -10.7 12.7
21:35 1013 29.91 842 24.86 -4.2 24.4 62 -10.5 13
21:40 1013 29.91 842 24.86 -4.7 23.6 64 -10.5 13.1
21:45 1013 29.91 842 24.86 -4.8 23.3 62 -11 12.2
21:50 1013 29.91 842 24.86 -4.8 23.4 62 -10.9 12.3
21:55 1013 29.91 842 24.86 -4.8 23.3 61 -11.2 11.8
22:00 1013 29.91 842 24.86 -4.6 23.7 61 -11.1 12
22:05 1013 29.91 842 24.86 -4.7 23.5 62 -11 12.2
22:10 1013 29.91 842 24.86 -4.8 23.3 60 -11.5 11.4
22:15 1013 29.91 842 24.86 -4.6 23.8 60 -11.3 11.7
22:20 1013 29.91 842 24.86 -4.6 23.7 59 -11.5 11.3
22:25 1013 29.91 842 24.86 -4.6 23.8 56 -12 10.4
22:30 1013 29.91 843 24.89 -4.5 23.9 56 -12 10.5
22:35 1013 29.91 843 24.89 -4.6 23.8 55 -12.2 10
22:40 1013 29.91 843 24.89 -4.6 23.7 58 -11.8 10.8
22:45 1013 29.91 843 24.89 -5 23 60 -11.6 11.1
22:50 1013 29.91 843 24.89 -5.2 22.6 58 -12.2 10
22:55 1013 29.91 843 24.89 -5.2 22.7 58 -12.2 10.1
23:00 1013 29.91 843 24.89 -5.1 22.9 56 -12.5 9.5
23:05 1013 29.91 843 24.89 -4.8 23.3 56 -12.2 10
23:10 1013 29.91 843 24.89 -4.9 23.2 61 -11.2 11.8
23:15 1013 29.91 843 24.89 -5 23 60 -11.7 11
23:20 1013 29.91 843 24.89 -5.1 22.8 62 -11.2 11.8
23:25 1013 29.91 843 24.89 -5.6 22 65 -11.2 11.8
23:30 1013 29.91 843 24.89 -5.6 21.9 63 -11.5 11.2
23:35 1013 29.91 843 24.89 -5.5 22.1 61 -11.8 10.7
23:40 1013 29.91 843 24.89 -5.2 22.6 61 -11.6 11.1
23:45 1013 29.91 843 24.89 -5.2 22.6 61 -11.6 11.1
23:50 1013 29.91 842 24.86 -5.3 22.4 62 -11.5 11.3
23:55 1013 29.91 842 24.86 -5.7 21.8 64 -11.4 11.4
24:00 1013 29.91 842 24.86 -6.1 21 67 -11.3 11.6